Observation data for Reese Center on 02/22/2019      Previous  Date  Next       Current Mesonet Observations  Soil Data  Daily Summary Page  Observations in Plain Language
KREE 220600Z 13014G20KT 04/M05 A2985 RMK A01 T00401051  RH  052%=      5-min Rain = 0
KREE 220605Z 13014KT 04/M05 A2985 RMK A01 T00391048  RH  053%=      5-min Rain = 0
KREE 220610Z 13015KT 04/M05 A2986 RMK A01 T00391047  RH  054%=      5-min Rain = 0
KREE 220615Z 13013KT 04/M05 A2986 RMK A01 T00371047  RH  055%=      5-min Rain = 0
KREE 220620Z 13012KT 04/M05 A2985 RMK A01 T00361046  RH  055%=      5-min Rain = 0
KREE 220625Z 13013KT 04/M05 A2985 RMK A01 T00361045  RH  056%=      5-min Rain = 0
KREE 220630Z 13013KT 04/M04 A2985 RMK A01 T00361043  RH  057%=      5-min Rain = 0
KREE 220635Z 13012KT 04/M04 A2985 RMK A01 T00351041  RH  058%=      5-min Rain = 0
KREE 220640Z 13012KT 03/M04 A2985 RMK A01 T00341042  RH  058%=      5-min Rain = 0
KREE 220645Z 13012KT 03/M04 A2986 RMK A01 T00321043  RH  059%=      5-min Rain = 0
KREE 220650Z 12011KT 03/M04 A2985 RMK A01 T00311043  RH  059%=      5-min Rain = 0
KREE 220655Z 12012KT 03/M04 A2985 RMK A01 T00311043  RH  059%=      5-min Rain = 0
KREE 220700Z 11012KT 03/M04 A2985 RMK A01 T00301043  RH  059%=      5-min Rain = 0
KREE 220705Z 11012KT 03/M04 A2985 RMK A01 T00301041  RH  060%=      5-min Rain = 0
KREE 220710Z 11011KT 03/M04 A2985 RMK A01 T00291040  RH  061%=      5-min Rain = 0
KREE 220715Z 11011KT 03/M04 A2985 RMK A01 T00291038  RH  062%=      5-min Rain = 0
KREE 220720Z 12011KT 03/M04 A2985 RMK A01 T00291036  RH  063%=      5-min Rain = 0
KREE 220725Z 12011KT 03/M03 A2985 RMK A01 T00281034  RH  064%=      5-min Rain = 0
KREE 220730Z 13012KT 03/M03 A2985 RMK A01 T00301033  RH  064%=      5-min Rain = 0
KREE 220735Z 13012KT 03/M03 A2986 RMK A01 T00281033  RH  065%=      5-min Rain = 0
KREE 220740Z 13012KT 03/M03 A2986 RMK A01 T00271033  RH  066%=      5-min Rain = 0
KREE 220745Z 12012KT 03/M03 A2986 RMK A01 T00271032  RH  066%=      5-min Rain = 0
KREE 220750Z 13011KT 03/M03 A2986 RMK A01 T00251032  RH  067%=      5-min Rain = 0
KREE 220755Z 13011G16KT 03/M03 A2987 RMK A01 T00251031  RH  067%=      5-min Rain = 0
KREE 220800Z 13010KT 02/M03 A2987 RMK A01 T00241030  RH  068%=      5-min Rain = 0
KREE 220805Z 13010KT 02/M03 A2987 RMK A01 T00231030  RH  069%=      5-min Rain = 0
KREE 220810Z 13009KT 02/M03 A2987 RMK A01 T00211030  RH  069%=      5-min Rain = 0
KREE 220815Z 12010KT 02/M03 A2987 RMK A01 T00201029  RH  070%=      5-min Rain = 0
KREE 220820Z 12011KT 02/M03 A2987 RMK A01 T00211028  RH  071%=      5-min Rain = 0
KREE 220825Z 12009KT 02/M03 A2987 RMK A01 T00181029  RH  071%=      5-min Rain = 0
KREE 220830Z 12009KT 02/M03 A2987 RMK A01 T00181028  RH  072%=      5-min Rain = 0
KREE 220835Z 12009KT 02/M03 A2988 RMK A01 T00161029  RH  073%=      5-min Rain = 0
KREE 220840Z 12010KT 02/M03 A2987 RMK A01 T00171027  RH  074%=      5-min Rain = 0
KREE 220845Z 11008KT 01/M03 A2987 RMK A01 T00131028  RH  075%=      5-min Rain = 0
KREE 220850Z 11008KT 01/M03 A2988 RMK A01 T00131028  RH  075%=      5-min Rain = 0
KREE 220855Z 11006KT 01/M03 A2988 RMK A01 T00131027  RH  076%=      5-min Rain = 0
KREE 220900Z 09004KT 01/M03 A2988 RMK A01 T00111028  RH  076%=      5-min Rain = 0
KREE 220905Z 08004KT 01/M03 A2988 RMK A01 T00081030  RH  076%=      5-min Rain = 0
KREE 220910Z 07004KT 01/M03 A2988 RMK A01 T00071029  RH  078%=      5-min Rain = 0
KREE 220915Z 08004KT 01/M03 A2988 RMK A01 T00081029  RH  078%=      5-min Rain = 0
KREE 220920Z 08006KT 00/M03 A2988 RMK A01 T00031032  RH  078%=      5-min Rain = 0
KREE 220925Z 09006KT M00/M03 A2988 RMK A01 T10021033  RH  080%=      5-min Rain = 0
KREE 220930Z 08005KT M00/M03 A2988 RMK A01 T10021032  RH  081%=      5-min Rain = 0
KREE 220935Z 07005KT M00/M03 A2988 RMK A01 T10021031  RH  082%=      5-min Rain = 0
KREE 220940Z 07006KT 00/M03 A2988 RMK A01 T00021027  RH  082%=      5-min Rain = 0
KREE 220945Z 06005KT 00/M03 A2988 RMK A01 T00031027  RH  081%=      5-min Rain = 0
KREE 220950Z 05005KT M01/M04 A2988 RMK A01 T10051035  RH  081%=      5-min Rain = 0
KREE 220955Z 06006KT M00/M03 A2988 RMK A01 T10021028  RH  084%=      5-min Rain = 0
KREE 221000Z 05006KT M00/M03 A2988 RMK A01 T10021029  RH  083%=      5-min Rain = 0
KREE 221005Z 06006KT M01/M03 A2987 RMK A01 T10051033  RH  083%=      5-min Rain = 0
KREE 221010Z 06006KT M01/M04 A2987 RMK A01 T10111037  RH  084%=      5-min Rain = 0
KREE 221015Z 06005KT M01/M03 A2987 RMK A01 T10081032  RH  085%=      5-min Rain = 0
KREE 221020Z 05005KT M02/M04 A2987 RMK A01 T10151040  RH  084%=      5-min Rain = 0
KREE 221025Z 06005KT M01/M04 A2987 RMK A01 T10141035  RH  087%=      5-min Rain = 0
KREE 221030Z 07006KT M01/M03 A2987 RMK A01 T10111032  RH  087%=      5-min Rain = 0
KREE 221035Z 07006KT M02/M04 A2987 RMK A01 T10151036  RH  086%=      5-min Rain = 0
KREE 221040Z 07006KT M02/M04 A2987 RMK A01 T10181036  RH  088%=      5-min Rain = 0
KREE 221045Z 07006KT M02/M03 A2987 RMK A01 T10151032  RH  089%=      5-min Rain = 0
KREE 221050Z 05006KT M01/M03 A2988 RMK A01 T10141033  RH  088%=      5-min Rain = 0
KREE 221055Z 04006KT M02/M04 A2988 RMK A01 T10211041  RH  087%=      5-min Rain = 0
KREE 221100Z 03007KT M03/M05 A2988 RMK A01 T10261045  RH  088%=      5-min Rain = 0
KREE 221105Z 03006KT M03/M04 A2988 RMK A01 T10271044  RH  089%=      5-min Rain = 0
KREE 221110Z 03007KT M03/M05 A2988 RMK A01 T10281045  RH  089%=      5-min Rain = 0
KREE 221115Z 03007KT M03/M04 A2988 RMK A01 T10281043  RH  090%=      5-min Rain = 0
KREE 221120Z 04007KT M02/M04 A2988 RMK A01 T10241038  RH  091%=      5-min Rain = 0
KREE 221125Z 04007KT M02/M04 A2988 RMK A01 T10221037  RH  090%=      5-min Rain = 0
KREE 221130Z 04007KT M02/M04 A2988 RMK A01 T10221038  RH  090%=      5-min Rain = 0
KREE 221135Z 06007KT M02/M04 A2988 RMK A01 T10191035  RH  090%=      5-min Rain = 0
KREE 221140Z 08007KT M01/M03 A2988 RMK A01 T10131027  RH  091%=      5-min Rain = 0
KREE 221145Z 09009KT M01/M02 A2988 RMK A01 T10081021  RH  092%=      5-min Rain = 0
KREE 221150Z 09010KT M01/M02 A2988 RMK A01 T10061019  RH  092%=      5-min Rain = 0
KREE 221155Z 08010KT M00/M02 A2988 RMK A01 T10031017  RH  092%=      5-min Rain = 0
KREE 221200Z 08010KT M00/M02 A2989 RMK A01 T10021015  RH  092%=      5-min Rain = 0
KREE 221205Z 08009KT M00/M01 A2989 RMK A01 T10011014  RH  092%=      5-min Rain = 0
KREE 221210Z 09011KT M00/M01 A2989 RMK A01 T10011013  RH  092%=      5-min Rain = 0
KREE 221215Z 09011KT 00/M01 A2989 RMK A01 T00011012  RH  092%=      5-min Rain = 0
KREE 221220Z 09011KT 00/01 A2989 RMK A01 T00000-11  RH  093%=      5-min Rain = 0
KREE 221225Z 09011KT 00/01 A2989 RMK A01 T00000-10  RH  094%=      5-min Rain = 0
KREE 221230Z 10012KT 00/M01 A2989 RMK A01 T00011009  RH  094%=      5-min Rain = 0
KREE 221235Z 10010KT 00/M01 A299 RMK A01 T00021008  RH  095%=      5-min Rain = 0
KREE 221240Z 11011KT 00/M01 A299 RMK A01 T00021007  RH  095%=      5-min Rain = 0
KREE 221245Z 10011KT 00/M01 A299 RMK A01 T00031005  RH  095%=      5-min Rain = 0
KREE 221250Z 10010KT 00/M00 A299 RMK A01 T00041004  RH  096%=      5-min Rain = 0
KREE 221255Z 11009KT 01/M00 A2989 RMK A01 T00051002  RH  096%=      5-min Rain = 0
KREE 221300Z 11008KT 01/00 A299 RMK A01 T000700-0  RH  096%=      5-min Rain = 0
KREE 221305Z 11008KT 01/00 A299 RMK A01 T00090002  RH  096%=      5-min Rain = 0
KREE 221310Z 12007KT 01/00 A299 RMK A01 T00110004  RH  096%=      5-min Rain = 0
KREE 221315Z 12008KT 01/01 A299 RMK A01 T00120006  RH  097%=      5-min Rain = 0
KREE 221320Z 11008KT 01/01 A299 RMK A01 T00140008  RH  097%=      5-min Rain = 0
KREE 221325Z 11006KT 02/01 A2991 RMK A01 T00160010  RH  097%=      5-min Rain = 0
KREE 221330Z 11007KT 02/01 A2991 RMK A01 T00180011  RH  097%=      5-min Rain = 0
KREE 221335Z 12008KT 02/01 A2991 RMK A01 T00200013  RH  097%=      5-min Rain = 0
KREE 221340Z 12009KT 02/02 A2991 RMK A01 T00210015  RH  097%=      5-min Rain = 0
KREE 221345Z 12008KT 02/02 A2991 RMK A01 T00220016  RH  097%=      5-min Rain = 0
KREE 221350Z 12008KT 02/02 A2991 RMK A01 T00230017  RH  097%=      5-min Rain = 0
KREE 221355Z 12009KT 02/02 A2991 RMK A01 T00240018  RH  097%=      5-min Rain = 0
KREE 221400Z 12010KT 03/02 A2991 RMK A01 T00250019  RH  097%=      5-min Rain = 0
KREE 221405Z 12011KT 03/02 A2991 RMK A01 T00260020  RH  097%=      5-min Rain = 0
KREE 221410Z 12010KT 03/02 A2991 RMK A01 T00270021  RH  097%=      5-min Rain = 0
KREE 221415Z 12010KT 03/02 A2991 RMK A01 T00280022  RH  097%=      5-min Rain = 0
KREE 221420Z 13010KT 03/02 A2991 RMK A01 T00300024  RH  097%=      5-min Rain = 0
KREE 221425Z 12010KT 03/03 A2992 RMK A01 T00310025  RH  097%=      5-min Rain = 0
KREE 221430Z 12012KT 03/03 A2992 RMK A01 T00320026  RH  097%=      5-min Rain = 0
KREE 221435Z 12011KT 03/03 A2992 RMK A01 T00330027  RH  097%=      5-min Rain = 0
KREE 221440Z 12010KT 03/03 A2992 RMK A01 T00340028  RH  097%=      5-min Rain = 0
KREE 221445Z 12011KT 03/03 A2993 RMK A01 T00340029  RH  097%=      5-min Rain = 0
KREE 221450Z 12011KT 04/03 A2993 RMK A01 T00350029  RH  097%=      5-min Rain = 0
KREE 221455Z 12011KT 04/03 A2993 RMK A01 T00350029  RH  097%=      5-min Rain = 0
KREE 221500Z 12010KT 04/03 A2994 RMK A01 T00360030  RH  097%=      5-min Rain = 0
KREE 221505Z 13012KT 04/03 A2994 RMK A01 T00360030  RH  097%=      5-min Rain = 0
KREE 221510Z 13011KT 04/03 A2994 RMK A01 T00370030  RH  097%=      5-min Rain = 0
KREE 221515Z 13011KT 04/03 A2994 RMK A01 T00390032  RH  097%=      5-min Rain = 0
KREE 221520Z 13011KT 04/03 A2994 RMK A01 T00380031  RH  096%=      5-min Rain = 0
KREE 221525Z 13010KT 04/03 A2995 RMK A01 T00390031  RH  096%=      5-min Rain = 0
KREE 221530Z 13011KT 04/03 A2995 RMK A01 T00390031  RH  095%=      5-min Rain = 0
KREE 221535Z 14011KT 04/03 A2995 RMK A01 T00410032  RH  095%=      5-min Rain = 0
KREE 221540Z 13010KT 04/03 A2994 RMK A01 T00420032  RH  094%=      5-min Rain = 0
KREE 221545Z 14010KT 04/03 A2994 RMK A01 T00440032  RH  093%=      5-min Rain = 0
KREE 221550Z 13008KT 05/03 A2995 RMK A01 T00470033  RH  092%=      5-min Rain = 0
KREE 221555Z 12008KT 05/03 A2995 RMK A01 T00460031  RH  091%=      5-min Rain = 0
KREE 221600Z 12008KT 05/03 A2995 RMK A01 T00460031  RH  091%=      5-min Rain = 0
KREE 221605Z 12008KT 05/03 A2995 RMK A01 T00470031  RH  091%=      5-min Rain = 0
KREE 221610Z 12007KT 05/03 A2995 RMK A01 T00470031  RH  090%=      5-min Rain = 0
KREE 221615Z 12008KT 05/03 A2995 RMK A01 T00480032  RH  090%=      5-min Rain = 0
KREE 221620Z 12008KT 05/03 A2995 RMK A01 T00480031  RH  090%=      5-min Rain = 0
KREE 221625Z 14008KT 05/03 A2995 RMK A01 T00500032  RH  089%=      5-min Rain = 0
KREE 221630Z 14007KT 05/03 A2995 RMK A01 T00520033  RH  088%=      5-min Rain = 0
KREE 221635Z 12007KT 05/03 A2994 RMK A01 T00530032  RH  088%=      5-min Rain = 0
KREE 221640Z 14006KT 05/03 A2994 RMK A01 T00540033  RH  087%=      5-min Rain = 0
KREE 221645Z 13006KT 06/03 A2994 RMK A01 T00560033  RH  086%=      5-min Rain = 0
KREE 221650Z 13009KT 06/03 A2994 RMK A01 T00550032  RH  086%=      5-min Rain = 0
KREE 221655Z 14008KT 06/03 A2994 RMK A01 T00570033  RH  086%=      5-min Rain = 0
KREE 221700Z 14007KT 06/03 A2994 RMK A01 T00570033  RH  085%=      5-min Rain = 0
KREE 221705Z 13009KT 06/03 A2994 RMK A01 T00580033  RH  085%=      5-min Rain = 0
KREE 221710Z 14007KT 06/03 A2994 RMK A01 T00600034  RH  084%=      5-min Rain = 0
KREE 221715Z 14008KT 06/03 A2993 RMK A01 T00630034  RH  083%=      5-min Rain = 0
KREE 221720Z 14006KT 06/03 A2994 RMK A01 T00630034  RH  083%=      5-min Rain = 0
KREE 221725Z 14006KT 07/03 A2993 RMK A01 T00650034  RH  082%=      5-min Rain = 0
KREE 221730Z 15007KT 07/04 A2993 RMK A01 T00670035  RH  081%=      5-min Rain = 0
KREE 221735Z 15006KT 07/04 A2993 RMK A01 T00680035  RH  080%=      5-min Rain = 0
KREE 221740Z 16008KT 07/03 A2993 RMK A01 T00670034  RH  080%=      5-min Rain = 0
KREE 221745Z 16007KT 07/04 A2993 RMK A01 T00680035  RH  081%=      5-min Rain = 0
KREE 221750Z 16006KT 07/03 A2993 RMK A01 T00710034  RH  078%=      5-min Rain = 0
KREE 221755Z 17007KT 07/04 A2993 RMK A01 T00720035  RH  078%=      5-min Rain = 0
KREE 221800Z 16007KT 07/03 A2992 RMK A01 T00740033  RH  076%=      5-min Rain = 0
KREE 221805Z 17008KT 08/03 A2992 RMK A01 T00760032  RH  075%=      5-min Rain = 0
KREE 221810Z 17006G11KT 08/03 A2992 RMK A01 T00770032  RH  074%=      5-min Rain = 0
KREE 221815Z 16006KT 08/03 A2991 RMK A01 T00790032  RH  073%=      5-min Rain = 0
KREE 221820Z 18006KT 08/03 A2991 RMK A01 T00790033  RH  074%=      5-min Rain = 0
KREE 221825Z 16006KT 08/03 A2991 RMK A01 T00810034  RH  073%=      5-min Rain = 0
KREE 221830Z 14006KT 08/03 A2991 RMK A01 T00820033  RH  072%=      5-min Rain = 0
KREE 221835Z 14006KT 09/04 A299 RMK A01 T00850035  RH  072%=      5-min Rain = 0
KREE 221840Z 14007KT 09/04 A299 RMK A01 T00900035  RH  069%=      5-min Rain = 0
KREE 221845Z 14005KT 09/03 A299 RMK A01 T00900034  RH  069%=      5-min Rain = 0
KREE 221850Z 14004KT 09/03 A2989 RMK A01 T00930034  RH  067%=      5-min Rain = 0
KREE 221855Z 14006KT 10/04 A2989 RMK A01 T00960035  RH  067%=      5-min Rain = 0
KREE 221900Z 15003KT 09/03 A2988 RMK A01 T00930034  RH  067%=      5-min Rain = 0
KREE 221905Z 16007KT 10/04 A2988 RMK A01 T01030035  RH  063%=      5-min Rain = 0
KREE 221910Z 17005KT 11/03 A2988 RMK A01 T01050034  RH  062%=      5-min Rain = 0
KREE 221915Z 18004KT 11/03 A2988 RMK A01 T01050031  RH  061%=      5-min Rain = 0
KREE 221920Z 14004KT 11/03 A2987 RMK A01 T01070034  RH  061%=      5-min Rain = 0
KREE 221925Z 15004KT 11/03 A2987 RMK A01 T01090033  RH  060%=      5-min Rain = 0
KREE 221930Z 15004G10KT 11/03 A2986 RMK A01 T01120034  RH  059%=      5-min Rain = 0
KREE 221935Z 12007KT 11/03 A2986 RMK A01 T01140034  RH  059%=      5-min Rain = 0
KREE 221940Z 13006G11KT 12/03 A2985 RMK A01 T01150034  RH  058%=      5-min Rain = 0
KREE 221945Z 17006KT 12/03 A2985 RMK A01 T01180034  RH  057%=      5-min Rain = 0
KREE 221950Z 16005KT 12/04 A2985 RMK A01 T01190036  RH  057%=      5-min Rain = 0
KREE 221955Z 15008KT 12/04 A2984 RMK A01 T01230035  RH  056%=      5-min Rain = 0
KREE 222000Z 14006KT 13/04 A2984 RMK A01 T01270035  RH  054%=      5-min Rain = 0
KREE 222005Z 15007KT 13/03 A2983 RMK A01 T01250034  RH  054%=      5-min Rain = 0
KREE 222010Z 15006KT 13/03 A2983 RMK A01 T01250034  RH  055%=      5-min Rain = 0
KREE 222015Z 15006KT 13/04 A2983 RMK A01 T01300035  RH  053%=      5-min Rain = 0
KREE 222020Z 15007KT 14/04 A2982 RMK A01 T01360036  RH  051%=      5-min Rain = 0
KREE 222025Z 16008KT 14/03 A2982 RMK A01 T01360029  RH  049%=      5-min Rain = 0
KREE 222030Z 16008G13KT 14/03 A2982 RMK A01 T01420026  RH  046%=      5-min Rain = 0
KREE 222035Z 15008KT 14/03 A2981 RMK A01 T01410027  RH  047%=      5-min Rain = 0
KREE 222040Z 15007KT 14/03 A2981 RMK A01 T01420026  RH  046%=      5-min Rain = 0
KREE 222045Z 14007KT 15/03 A2981 RMK A01 T01460028  RH  046%=      5-min Rain = 0
KREE 222050Z 15008KT 15/03 A2981 RMK A01 T01480025  RH  044%=      5-min Rain = 0
KREE 222055Z 15008KT 15/03 A2981 RMK A01 T01490027  RH  044%=      5-min Rain = 0
KREE 222100Z 14009KT 15/03 A298 RMK A01 T01480031  RH  046%=      5-min Rain = 0
KREE 222105Z 13007KT 15/03 A298 RMK A01 T01470030  RH  046%=      5-min Rain = 0
KREE 222110Z 13008KT 15/03 A298 RMK A01 T01460033  RH  047%=      5-min Rain = 0
KREE 222115Z 13010KT 15/03 A298 RMK A01 T01480032  RH  046%=      5-min Rain = 0
KREE 222120Z 12010G15KT 14/04 A298 RMK A01 T01440037  RH  049%=      5-min Rain = 0
KREE 222125Z 12010G19KT 15/04 A298 RMK A01 T01460037  RH  049%=      5-min Rain = 0
KREE 222130Z 11010G15KT 14/04 A298 RMK A01 T01420035  RH  049%=      5-min Rain = 0
KREE 222135Z 11011G17KT 15/04 A298 RMK A01 T01460036  RH  048%=      5-min Rain = 0
KREE 222140Z 12012KT 15/03 A2979 RMK A01 T01470034  RH  047%=      5-min Rain = 0
KREE 222145Z 13011G16KT 15/04 A2979 RMK A01 T01470036  RH  048%=      5-min Rain = 0
KREE 222150Z 11011G16KT 15/04 A2979 RMK A01 T01450036  RH  049%=      5-min Rain = 0
KREE 222155Z 11012G17KT 14/04 A2979 RMK A01 T01410038  RH  050%=      5-min Rain = 0
KREE 222200Z 11013G19KT 14/04 A2979 RMK A01 T01400039  RH  051%=      5-min Rain = 0
KREE 222205Z 11014KT 14/04 A2979 RMK A01 T01370040  RH  053%=      5-min Rain = 0
KREE 222210Z 11014KT 14/04 A2979 RMK A01 T01360041  RH  053%=      5-min Rain = 0
KREE 222215Z 11014KT 13/04 A2979 RMK A01 T01340041  RH  054%=      5-min Rain = 0
KREE 222220Z 12015KT 13/04 A2979 RMK A01 T01330042  RH  055%=      5-min Rain = 0
KREE 222225Z 12016KT 13/04 A2979 RMK A01 T01310041  RH  055%=      5-min Rain = 0
KREE 222230Z 12017KT 12/04 A2979 RMK A01 T01240040  RH  057%=      5-min Rain = 0
KREE 222235Z 12015KT 12/04 A2979 RMK A01 T01210041  RH  059%=      5-min Rain = 0
KREE 222240Z 12015KT 12/04 A2979 RMK A01 T01190039  RH  059%=      5-min Rain = 0
KREE 222245Z 12014KT 12/04 A2979 RMK A01 T01160039  RH  060%=      5-min Rain = 0
KREE 222250Z 11014KT 11/04 A2979 RMK A01 T01120039  RH  061%=      5-min Rain = 0
KREE 222255Z 12014KT 11/04 A2979 RMK A01 T01100037  RH  062%=      5-min Rain = 0
KREE 222300Z 12014KT 11/04 A2979 RMK A01 T01080037  RH  063%=      5-min Rain = 0
KREE 222305Z 13014KT 11/04 A2979 RMK A01 T01080038  RH  063%=      5-min Rain = 0
KREE 222310Z 13015KT 11/04 A2979 RMK A01 T01060037  RH  063%=      5-min Rain = 0
KREE 222315Z 12015KT 10/04 A2979 RMK A01 T01030037  RH  065%=      5-min Rain = 0
KREE 222320Z 11014KT 10/04 A2979 RMK A01 T00990037  RH  066%=      5-min Rain = 0
KREE 222325Z 10013KT 10/04 A2979 RMK A01 T00960037  RH  068%=      5-min Rain = 0
KREE 222330Z 11012KT 10/04 A2979 RMK A01 T00950038  RH  068%=      5-min Rain = 0
KREE 222335Z 11012KT 09/04 A2979 RMK A01 T00940038  RH  069%=      5-min Rain = 0
KREE 222340Z 10011KT 09/04 A2979 RMK A01 T00920038  RH  070%=      5-min Rain = 0
KREE 222345Z 10011KT 09/04 A2979 RMK A01 T00930038  RH  069%=      5-min Rain = 0
KREE 222350Z 10010KT 09/04 A2978 RMK A01 T00930038  RH  069%=      5-min Rain = 0
KREE 222355Z 10011KT 09/04 A2978 RMK A01 T00920038  RH  070%=      5-min Rain = 0
KREE 230000Z 10011KT 09/04 A2978 RMK A01 T00910038  RH  070%=      5-min Rain = 0
KREE 230005Z 11011KT 09/04 A2977 RMK A01 T00900038  RH  071%=      5-min Rain = 0
KREE 230010Z 10011KT 09/04 A2977 RMK A01 T00890037  RH  071%=      5-min Rain = 0
KREE 230015Z 09010KT 09/04 A2977 RMK A01 T00880037  RH  072%=      5-min Rain = 0
KREE 230020Z 10010KT 09/04 A2977 RMK A01 T00860037  RH  072%=      5-min Rain = 0
KREE 230025Z 09011KT 08/04 A2977 RMK A01 T00830036  RH  073%=      5-min Rain = 0
KREE 230030Z 09011KT 08/04 A2976 RMK A01 T00800036  RH  075%=      5-min Rain = 0
KREE 230035Z 09009KT 08/04 A2977 RMK A01 T00760035  RH  076%=      5-min Rain = 0
KREE 230040Z 09009KT 07/03 A2977 RMK A01 T00720034  RH  078%=      5-min Rain = 0
KREE 230045Z 10011KT 07/04 A2977 RMK A01 T00710035  RH  079%=      5-min Rain = 0
KREE 230050Z 10010KT 07/03 A2977 RMK A01 T00700033  RH  079%=      5-min Rain = 0
KREE 230055Z 10011KT 07/03 A2977 RMK A01 T00670032  RH  079%=      5-min Rain = 0
KREE 230100Z 10012KT 07/04 A2977 RMK A01 T00670035  RH  081%=      5-min Rain = 0
KREE 230105Z 10012KT 07/04 A2977 RMK A01 T00660035  RH  082%=      5-min Rain = 0
KREE 230110Z 10011KT 07/04 A2976 RMK A01 T00650035  RH  082%=      5-min Rain = 0
KREE 230115Z 10012KT 06/04 A2976 RMK A01 T00640036  RH  083%=      5-min Rain = 0
KREE 230120Z 10011KT 06/04 A2976 RMK A01 T00630035  RH  084%=      5-min Rain = 0
KREE 230125Z 10013KT 06/04 A2976 RMK A01 T00620037  RH  085%=      5-min Rain = 0
KREE 230130Z 10014KT 06/04 A2975 RMK A01 T00630038  RH  085%=      5-min Rain = 0
KREE 230135Z 10013KT 06/04 A2975 RMK A01 T00610038  RH  086%=      5-min Rain = 0
KREE 230140Z 10013KT 06/04 A2974 RMK A01 T00600039  RH  088%=      5-min Rain = 0
KREE 230145Z 09013KT 06/04 A2974 RMK A01 T00610041  RH  088%=      5-min Rain = 0
KREE 230150Z 10015KT 06/04 A2974 RMK A01 T00610044  RH  090%=      5-min Rain = 0
KREE 230155Z 10017G23KT 06/05 A2974 RMK A01 T00630047  RH  090%=      5-min Rain = 0
KREE 230200Z 11018KT 06/05 A2974 RMK A01 T00640049  RH  091%=      5-min Rain = 0
KREE 230205Z 11017G23KT 07/05 A2974 RMK A01 T00650049  RH  091%=      5-min Rain = 0
KREE 230210Z 10018KT 06/05 A2974 RMK A01 T00630049  RH  092%=      5-min Rain = 0
KREE 230215Z 11019KT 06/05 A2974 RMK A01 T00630050  RH  092%=      5-min Rain = 0
KREE 230220Z 11019G24KT 06/05 A2973 RMK A01 T00620050  RH  093%=      5-min Rain = 0
KREE 230225Z 11022G27KT 06/05 A2973 RMK A01 T00600050  RH  094%=      5-min Rain = 0
KREE 230230Z 11021G26KT 06/05 A2973 RMK A01 T00590050  RH  095%=      5-min Rain = 0
KREE 230235Z 10021G27KT 06/05 A2973 RMK A01 T00580050  RH  096%=      5-min Rain = 0
KREE 230240Z 10021G26KT 06/05 A2973 RMK A01 T00580050  RH  096%=      5-min Rain = 0
KREE 230245Z 10020KT 06/05 A2972 RMK A01 T00580050  RH  096%=      5-min Rain = 0
KREE 230250Z 10020G25KT 06/05 A2972 RMK A01 T00570050  RH  097%=      5-min Rain = 0
KREE 230255Z 10017G23KT 06/05 A2973 RMK A01 T00570051  RH  097%=      5-min Rain = 0
KREE 230300Z 10016G21KT 06/05 A2973 RMK A01 T00580051  RH  097%=      5-min Rain = 0
KREE 230305Z 10015KT 06/05 A2973 RMK A01 T00590053  RH  097%=      5-min Rain = 0
KREE 230310Z 10014G19KT 06/05 A2974 RMK A01 T00590053  RH  097%=      5-min Rain = 0
KREE 230315Z 10014G19KT 06/05 A2974 RMK A01 T00590053  RH  097%=      5-min Rain = 0
KREE 230320Z 10013KT 06/05 A2975 RMK A01 T00590053  RH  097%=      5-min Rain = 0
KREE 230325Z 10014G19KT 06/05 A2975 RMK A01 T00590053  RH  097%=      5-min Rain = 0
KREE 230330Z 10014KT 06/05 A2974 RMK A01 T00590053  RH  097%=      5-min Rain = 0
KREE 230335Z 10014KT 06/05 A2974 RMK A01 T00600053  RH  097%=      5-min Rain = 0
KREE 230340Z 10013KT 06/05 A2974 RMK A01 T00600054  RH  097%=      5-min Rain = 0
KREE 230345Z 10012KT 06/05 A2975 RMK A01 T00610054  RH  097%=      5-min Rain = 0
KREE 230350Z 10012KT 06/06 A2975 RMK A01 T00610055  RH  097%=      5-min Rain = 0
KREE 230355Z 09009KT 06/06 A2975 RMK A01 T00610055  RH  097%=      5-min Rain = 0
KREE 230400Z 09006KT 06/06 A2976 RMK A01 T00610055  RH  097%=      5-min Rain = 0
KREE 230405Z 09005KT 06/06 A2976 RMK A01 T00610055  RH  097%=      5-min Rain = 0
KREE 230410Z 11003KT 06/06 A2977 RMK A01 T00610055  RH  097%=      5-min Rain = 0
KREE 230415Z 09005KT 06/06 A2976 RMK A01 T00620056  RH  097%=      5-min Rain = 0
KREE 230420Z 06005KT 06/06 A2975 RMK A01 T00610055  RH  097%=      5-min Rain = 0
KREE 230425Z 05005KT 06/06 A2975 RMK A01 T00610055  RH  097%=      5-min Rain = 0
KREE 230430Z 04003KT 06/06 A2977 RMK A01 T00610055  RH  097%=      5-min Rain = 0
KREE 230435Z 05003KT 06/06 A2977 RMK A01 T00620056  RH  097%=      5-min Rain = 0
KREE 230440Z 07006KT 06/06 A2976 RMK A01 T00620056  RH  097%=      5-min Rain = 0
KREE 230445Z 06007KT 06/06 A2974 RMK A01 T00620056  RH  097%=      5-min Rain = 0
KREE 230450Z 09010KT 06/06 A2974 RMK A01 T00620056  RH  097%=      5-min Rain = 0
KREE 230455Z 08014KT 06/06 A2972 RMK A01 T00620056  RH  097%=      5-min Rain = 0
KREE 230500Z 08011G16KT 06/06 A2972 RMK A01 T00610055  RH  097%=      5-min Rain = 0
KREE 230505Z 10010KT 06/06 A2974 RMK A01 T00610055  RH  097%=      5-min Rain = 0
KREE 230510Z 08010KT 06/06 A297 RMK A01 T00610055  RH  097%=      5-min Rain = 0
KREE 230515Z 10012KT 06/06 A2972 RMK A01 T00620056  RH  097%=      5-min Rain = 0
KREE 230520Z 10014KT 06/06 A2971 RMK A01 T00630057  RH  097%=      5-min Rain = 0
KREE 230525Z 11015KT 06/06 A2971 RMK A01 T00630057  RH  097%=      5-min Rain = 0
KREE 230530Z 10014KT 06/06 A297 RMK A01 T00630058  RH  098%=      5-min Rain = 0
KREE 230535Z 12014KT 06/06 A297 RMK A01 T00640059  RH  098%=      5-min Rain = 0
KREE 230540Z 12014KT 06/06 A2971 RMK A01 T00640059  RH  098%=      5-min Rain = 0
KREE 230545Z 12013KT 06/06 A2971 RMK A01 T00640058  RH  098%=      5-min Rain = 0
KREE 230550Z 12013KT 06/06 A297 RMK A01 T00640058  RH  098%=      5-min Rain = 0
KREE 230555Z 12015KT 06/06 A297 RMK A01 T00640058  RH  098%=      5-min Rain = 0

Page generated in 0.0302 seconds.